Time;durP1;ratioP1;P1;durP2;ratioP2;P2;SDS_P1;SDS_P2;PMS_P1;PMS_P2;Temp;Humidity;BMP_temperature;BMP_pressure;BME280_temperature;BME280_humidity;BME280_pressure;Samples;Min_cycle;Max_cycle;Signal;HPM_P1;HPM_P2
2022/03/05 00:01:37;;;;;;;22.10;10.13;;;;;;;;;;5076917;22;20479;-87
2022/03/05 00:04:04;;;;;;;20.47;11.57;;;;;;;;;;5073542;28;20453;-86
2022/03/05 00:06:31;;;;;;;21.10;11.07;;;-1.60;99.90;;;;;;5072357;28;20438;-86
2022/03/05 00:08:58;;;;;;;19.63;11.03;;;;;;;;;;5067392;23;20495;-86
2022/03/05 00:11:26;;;;;;;22.10;11.53;;;;;;;;;;5063428;23;20416;-88
2022/03/05 00:14:02;;;;;;;19.90;9.93;;;;;;;;;;5082338;22;20522;-85
2022/03/05 00:16:29;;;;;;;20.33;10.10;;;;;;;;;;5053743;28;20444;-85
2022/03/05 00:18:58;;;;;;;16.57;8.83;;;-1.60;99.90;;;;;;5086653;23;20493;-86
2022/03/05 00:21:25;;;;;;;14.93;8.53;;;;;;;;;;5066418;22;20487;-87
2022/03/05 00:23:54;;;;;;;13.90;8.60;;;;;;;;;;5051781;28;20440;-87
2022/03/05 00:26:21;;;;;;;19.43;9.40;;;;;;;;;;5047449;28;20451;-86
2022/03/05 00:28:49;;;;;;;15.80;8.80;;;;;;;;;;5048818;28;20450;-86
2022/03/05 00:31:17;;;;;;;15.50;9.57;;;;;;;;;;5050754;28;20443;-86
2022/03/05 00:33:44;;;;;;;13.90;8.13;;;;;;;;;;5051962;28;20467;-86
2022/03/05 00:36:14;;;;;;;14.90;8.67;;;;;;;;;;5071314;23;20494;-87
2022/03/05 00:38:42;;;;;;;17.10;10.07;;;;;;;;;;5076789;23;20439;-86
2022/03/05 00:41:10;;;;;;;16.90;9.67;;;-1.80;99.90;;;;;;5073960;23;20576;-87
2022/03/05 00:43:37;;;;;;;17.00;8.87;;;;;;;;;;5070818;28;20461;-87
2022/03/05 00:46:04;;;;;;;16.30;9.03;;;;;;;;;;5073195;28;20455;-86
2022/03/05 00:48:38;;;;;;;13.87;8.07;;;-1.80;99.90;;;;;;5071092;23;20495;-86
2022/03/05 00:51:06;;;;;;;16.23;8.40;;;;;;;;;;5073214;23;20571;-87
2022/03/05 00:53:34;;;;;;;15.57;8.00;;;;;;;;;;5052010;28;20539;-86
2022/03/05 00:56:01;;;;;;;13.60;8.50;;;;;;;;;;5050549;28;20467;-87
2022/03/05 00:58:28;;;;;;;14.40;8.40;;;;;;;;;;5051634;28;20519;-87
2022/03/05 01:00:55;;;;;;;18.57;9.40;;;;;;;;;;5050439;28;20451;-85
2022/03/05 01:03:23;;;;;;;13.70;8.47;;;;;;;;;;5042267;28;20811;-86
2022/03/05 01:05:53;;;;;;;14.93;8.47;;;-2.10;99.90;;;;;;5045265;28;20447;-86
2022/03/05 01:08:20;;;;;;;13.50;8.83;;;;;;;;;;5045009;28;20486;-86
2022/03/05 01:10:47;;;;;;;18.27;10.20;;;;;;;;;;5044932;28;20414;-87
2022/03/05 01:13:15;;;;;;;14.87;9.00;;;;;;;;;;5046053;28;20464;-86
2022/03/05 01:15:42;;;;;;;16.03;8.77;;;;;;;;;;5045559;28;20452;-88
2022/03/05 01:20:38;;;;;;;15.27;8.17;;;;;;;;;;5045762;28;20454;-85
2022/03/05 01:23:07;;;;;;;15.07;8.27;;;;;;;;;;5045713;28;20473;-84
2022/03/05 01:25:34;;;;;;;22.47;9.43;;;;;;;;;;5047576;28;20415;-86
2022/03/05 01:28:04;;;;;;;15.50;8.77;;;;;;;;;;5042546;23;20496;-87
2022/03/05 01:30:32;;;;;;;19.97;8.03;;;;;;;;;;5059216;23;20466;-85
2022/03/05 01:32:59;;;;;;;16.23;8.80;;;;;;;;;;5048916;28;20449;-87
2022/03/05 01:35:26;;;;;;;15.10;8.80;;;;;;;;;;5045523;28;20505;-86
2022/03/05 01:37:53;;;;;;;16.43;8.60;;;;;;;;;;5049298;28;20451;-84
2022/03/05 01:40:22;;;;;;;14.57;9.27;;;;;;;;;;5045801;28;20432;-85
2022/03/05 01:42:49;;;;;;;14.23;8.20;;;;;;;;;;5045725;28;20447;-85
2022/03/05 01:45:18;;;;;;;13.40;8.00;;;;;;;;;;5067628;23;20494;-85
2022/03/05 01:47:46;;;;;;;13.87;7.90;;;;;;;;;;5065724;28;20837;-86
2022/03/05 01:50:13;;;;;;;11.83;7.77;;;;;;;;;;5063355;28;20473;-86
2022/03/05 01:52:40;;;;;;;14.10;7.73;;;;;;;;;;5061724;28;20446;-86
2022/03/05 01:55:08;;;;;;;15.97;8.50;;;-2.50;99.90;;;;;;5064748;22;20483;-85
2022/03/05 01:57:37;;;;;;;14.80;8.03;;;;;;;;;;5042706;28;20452;-87
2022/03/05 02:00:05;;;;;;;15.33;7.83;;;-2.00;99.90;;;;;;5046282;28;20428;-86
2022/03/05 02:02:32;;;;;;;13.00;7.93;;;;;;;;;;5043530;28;20455;-88
2022/03/05 02:04:59;;;;;;;12.93;7.07;;;;;;;;;;5045929;28;20422;-87
2022/03/05 02:07:27;;;;;;;13.70;7.73;;;;;;;;;;5047464;28;20430;-86
2022/03/05 02:09:57;;;;;;;16.63;8.93;;;-2.60;99.90;;;;;;5077991;23;20493;-86
2022/03/05 02:12:28;;;;;;;11.77;7.17;;;-2.70;99.90;;;;;;5067137;28;20443;-86
2022/03/05 02:15:00;;;;;;;15.63;7.87;;;-2.70;99.90;;;;;;5080744;22;20489;-86
2022/03/05 02:17:27;;;;;;;11.60;7.20;;;;;;;;;;5060012;23;20486;-86
2022/03/05 02:19:55;;;;;;;14.27;7.47;;;;;;;;;;5064281;28;20459;-86
2022/03/05 02:22:24;;;;;;;10.97;6.60;;;-2.80;99.90;;;;;;5066971;28;20442;-86
2022/03/05 02:24:52;;;;;;;12.10;6.97;;;-2.80;99.90;;;;;;5065705;28;20446;-85
2022/03/05 02:27:23;;;;;;;12.70;7.60;;;-2.70;99.90;;;;;;5072634;22;20549;-87
2022/03/05 02:29:50;;;;;;;13.87;7.70;;;-2.80;99.90;;;;;;5051301;23;20455;-86
2022/03/05 02:32:17;;;;;;;14.30;7.20;;;;;;;;;;5066770;28;20460;-86
2022/03/05 02:34:45;;;;;;;11.47;7.30;;;;;;;;;;5066007;28;20493;-87
2022/03/05 02:37:13;;;;;;;14.03;6.90;;;;;;;;;;5067877;28;20450;-87
2022/03/05 02:39:42;;;;;;;12.03;6.50;;;;;;;;;;5063666;28;20477;-86
2022/03/05 02:42:09;;;;;;;10.80;6.47;;;;;;;;;;5064054;28;20473;-85
2022/03/05 02:44:37;;;;;;;13.33;6.40;;;;;;;;;;5066833;28;20451;-87
2022/03/05 02:47:04;;;;;;;10.83;6.53;;;;;;;;;;5068137;28;20449;-86
2022/03/05 02:49:31;;;;;;;11.77;6.90;;;;;;;;;;5067679;28;20442;-86
2022/03/05 02:51:58;;;;;;;10.90;5.80;;;;;;;;;;5156458;22;20455;-87
2022/03/05 02:54:29;;;;;;;10.77;6.67;;;;;;;;;;5067130;22;20518;-86
2022/03/05 02:56:58;;;;;;;8.07;5.87;;;-3.00;99.90;;;;;;5050514;28;20429;-86
2022/03/05 02:59:26;;;;;;;10.43;6.63;;;;;;;;;;5028248;28;20968;-86
2022/03/05 03:02:00;;;;;;;10.13;5.70;;;;;;;;;;5035629;23;20476;-86
2022/03/05 03:04:27;;;;;;;10.93;7.63;;;;;;;;;;5049725;28;20961;-86
2022/03/05 03:06:54;;;;;;;10.43;6.10;;;;;;;;;;5049561;28;20426;-86
2022/03/05 03:09:22;;;;;;;9.63;6.00;;;;;;;;;;5057334;22;20483;-87
2022/03/05 03:11:49;;;;;;;12.20;7.13;;;;;;;;;;5047597;28;20429;-87
2022/03/05 03:14:17;;;;;;;12.47;7.00;;;-2.30;99.90;;;;;;5046858;28;20468;-86
2022/03/05 03:16:44;;;;;;;14.63;6.80;;;;;;;;;;5048877;28;20458;-86
2022/03/05 03:19:11;;;;;;;15.93;7.20;;;;;;;;;;5050773;28;20443;-86
2022/03/05 03:21:39;;;;;;;13.20;6.30;;;;;;;;;;5049741;28;20451;-87
2022/03/05 03:24:06;;;;;;;12.40;6.77;;;;;;;;;;5046111;28;20447;-86
2022/03/05 03:26:34;;;;;;;9.77;5.40;;;-3.20;99.90;;;;;;5069724;23;20498;-86
2022/03/05 03:29:01;;;;;;;10.67;5.93;;;;;;;;;;5068687;28;20443;-86
2022/03/05 03:31:29;;;;;;;12.33;7.00;;;-3.30;99.90;;;;;;5067864;28;20458;-86
2022/03/05 03:33:56;;;;;;;10.73;6.80;;;;;;;;;;5068388;28;20447;-86
2022/03/05 03:36:24;;;;;;;10.10;6.10;;;-3.30;99.90;;;;;;5071095;22;20479;-85
2022/03/05 03:38:52;;;;;;;8.07;5.10;;;;;;;;;;5046104;28;20448;-85
2022/03/05 03:41:19;;;;;;;9.57;6.37;;;;;;;;;;5047267;28;20451;-86
2022/03/05 03:43:46;;;;;;;10.23;6.70;;;;;;;;;;5047367;28;20444;-86
2022/03/05 03:46:13;;;;;;;11.20;5.43;;;;;;;;;;5048974;28;20439;-86
2022/03/05 03:48:42;;;;;;;10.80;5.77;;;-3.40;99.90;;;;;;5048382;28;20940;-86
2022/03/05 03:51:09;;;;;;;9.57;6.60;;;;;;;;;;5049638;28;20453;-86
2022/03/05 03:53:36;;;;;;;9.97;6.17;;;;;;;;;;5049940;28;20459;-85
2022/03/05 03:56:04;;;;;;;9.23;5.40;;;;;;;;;;5054499;23;20462;-86
2022/03/05 03:58:31;;;;;;;16.63;7.87;;;;;;;;;;5046208;28;20470;-86
2022/03/05 04:01:02;;;;;;;11.23;5.93;;;;;;;;;;5054565;22;20487;-86
2022/03/05 04:03:29;;;;;;;11.00;6.63;;;;;;;;;;5030888;28;20494;-85
2022/03/05 04:05:58;;;;;;;16.23;6.80;;;-3.40;99.90;;;;;;5048812;28;20530;-86
2022/03/05 04:08:43;;;;;;;7.60;5.30;;;;;;;;;;5051703;28;20896;-86
2022/03/05 04:11:10;;;;;;;10.40;6.37;;;;;;;;;;5048318;28;20424;-86
2022/03/05 04:13:37;;;;;;;10.60;6.10;;;;;;;;;;5049634;28;20430;-85
2022/03/05 04:16:05;;;;;;;14.23;6.80;;;-3.60;99.90;;;;;;5047718;28;20487;-85
2022/03/05 04:18:32;;;;;;;9.60;5.50;;;;;;;;;;5048542;28;20511;-85
2022/03/05 04:21:01;;;;;;;9.50;5.60;;;-3.60;99.90;;;;;;5057479;23;20447;-85
2022/03/05 04:23:28;;;;;;;9.03;5.67;;;;;;;;;;5047813;28;20448;-85
2022/03/05 04:25:57;;;;;;;8.50;6.03;;;-3.60;99.90;;;;;;5051278;22;20846;-86
2022/03/05 04:28:24;;;;;;;12.50;6.70;;;;;;;;;;5046494;28;20402;-85
2022/03/05 04:30:51;;;;;;;11.43;6.23;;;;;;;;;;5042571;28;20462;-86
2022/03/05 04:33:18;;;;;;;9.57;6.27;;;;;;;;;;5065554;23;20844;-85
2022/03/05 04:35:46;;;;;;;12.00;5.67;;;;;;;;;;5057988;28;20985;-86
2022/03/05 04:38:14;;;;;;;10.77;5.80;;;-3.60;99.90;;;;;;5057453;28;20458;-85
2022/03/05 04:40:41;;;;;;;10.30;7.00;;;;;;;;;;5058826;28;20421;-85
2022/03/05 04:43:08;;;;;;;7.97;4.93;;;;;;;;;;5065632;28;20429;-85
2022/03/05 04:45:35;;;;;;;8.80;5.60;;;;;;;;;;5064474;28;20462;-86
2022/03/05 04:48:02;;;;;;;11.53;6.07;;;;;;;;;;5065497;28;20438;-85
2022/03/05 04:50:30;;;;;;;11.40;5.90;;;;;;;;;;5064086;28;20462;-85
2022/03/05 04:52:57;;;;;;;8.63;6.03;;;-3.80;99.90;;;;;;5071070;22;20529;-86
2022/03/05 04:55:26;;;;;;;7.53;5.40;;;-3.80;99.90;;;;;;5040190;28;20482;-85
2022/03/05 04:57:53;;;;;;;12.13;6.27;;;;;;;;;;5064933;28;20457;-86
2022/03/05 05:00:20;;;;;;;11.47;5.43;;;;;;;;;;5063138;28;20428;-85
2022/03/05 05:02:48;;;;;;;17.03;6.83;;;;;;;;;;5065424;22;20495;-85
2022/03/05 05:05:15;;;;;;;11.50;6.40;;;;;;;;;;5044088;28;20462;-86
2022/03/05 05:07:42;;;;;;;13.20;7.30;;;;;;;;;;5044920;28;20439;-85
2022/03/05 05:10:09;;;;;;;11.70;6.20;;;;;;;;;;5044072;28;20443;-85
2022/03/05 05:12:37;;;;;;;13.87;8.00;;;-3.90;99.90;;;;;;5041272;28;20881;-85
2022/03/05 05:15:06;;;;;;;8.97;6.07;;;-3.90;99.90;;;;;;5044421;28;20505;-85
2022/03/05 05:17:36;;;;;;;7.53;5.00;;;-3.90;99.90;;;;;;5044306;28;20446;-86
2022/03/05 05:20:03;;;;;;;14.00;6.73;;;;;;;;;;5049908;23;20943;-85
2022/03/05 05:22:32;;;;;;;13.57;6.60;;;;;;;;;;5022812;28;20463;-86
2022/03/05 05:24:59;;;;;;;8.50;5.37;;;;;;;;;;5021526;28;20481;-85
2022/03/05 05:27:30;;;;;;;12.90;6.80;;;;;;;;;;5023994;28;20426;-86
2022/03/05 05:29:59;;;;;;;11.20;5.73;;;-3.90;99.90;;;;;;5023140;28;20448;-87
2022/03/05 05:32:26;;;;;;;11.03;6.37;;;;;;;;;;5021858;28;20434;-89
2022/03/05 05:34:53;;;;;;;11.20;6.07;;;;;;;;;;5021721;28;20453;-85
2022/03/05 05:37:20;;;;;;;10.00;6.00;;;;;;;;;;5018224;28;20448;-85
2022/03/05 05:39:47;;;;;;;17.70;6.93;;;;;;;;;;5016971;28;20444;-84
2022/03/05 05:42:18;;;;;;;11.70;6.40;;;-2.90;99.90;;;;;;5018770;28;20452;-89
2022/03/05 05:44:56;;;;;;;13.30;6.57;;;-4.00;99.90;;;;;;5031575;28;20507;-84
2022/03/05 05:47:24;;;;;;;12.83;6.70;;;;;;;;;;5104436;23;20439;-86
2022/03/05 05:49:51;;;;;;;12.20;6.27;;;;;;;;;;5107341;23;20475;-85
2022/03/05 05:52:19;;;;;;;14.13;6.67;;;;;;;;;;5045017;28;20422;-89
2022/03/05 05:54:46;;;;;;;11.07;6.03;;;-4.00;99.90;;;;;;5039926;28;21013;-87
2022/03/05 05:57:14;;;;;;;11.20;6.53;;;;;;;;;;5037849;28;20444;-87
2022/03/05 05:59:41;;;;;;;13.13;7.00;;;;;;;;;;5038399;28;20458;-86
2022/03/05 06:02:08;;;;;;;15.47;7.47;;;;;;;;;;5040417;28;20807;-89
2022/03/05 06:04:37;;;;;;;12.63;6.43;;;-4.00;99.90;;;;;;5039674;28;20793;-89
2022/03/05 06:07:04;;;;;;;9.27;5.60;;;;;;;;;;5045346;28;20455;-86
2022/03/05 06:09:31;;;;;;;12.50;6.90;;;;;;;;;;5041324;28;20427;-85
2022/03/05 06:11:58;;;;;;;10.17;6.10;;;;;;;;;;5043636;28;20454;-88
2022/03/05 06:14:26;;;;;;;11.73;6.83;;;;;;;;;;5044572;28;20443;-87
2022/03/05 06:16:53;;;;;;;15.10;7.70;;;;;;;;;;5045123;28;20493;-85
2022/03/05 06:19:20;;;;;;;14.00;7.47;;;;;;;;;;5047995;28;20451;-86
2022/03/05 06:21:49;;;;;;;12.67;7.47;;;-3.10;99.90;;;;;;5045901;28;20426;-87
2022/03/05 06:24:16;;;;;;;12.10;7.03;;;;;;;;;;5047181;28;20422;-86
2022/03/05 06:26:43;;;;;;;17.10;7.30;;;;;;;;;;5050250;28;20497;-86
2022/03/05 06:29:10;;;;;;;11.03;7.10;;;;;;;;;;5049630;28;20467;-85
2022/03/05 06:31:37;;;;;;;11.87;7.57;;;;;;;;;;5044303;28;20448;-87
2022/03/05 06:34:04;;;;;;;10.90;6.50;;;;;;;;;;5045821;28;20470;-86
2022/03/05 06:36:32;;;;;;;13.87;7.90;;;;;;;;;;5044493;28;20459;-86
2022/03/05 06:39:00;;;;;;;13.33;8.40;;;;;;;;;;5044944;28;20447;-86
2022/03/05 06:41:28;;;;;;;14.60;7.00;;;;;;;;;;5046898;28;20943;-86
2022/03/05 06:43:55;;;;;;;11.73;7.47;;;;;;;;;;5047673;28;20445;-86
2022/03/05 06:46:22;;;;;;;12.67;7.03;;;;;;;;;;5049662;28;20483;-85
2022/03/05 06:48:49;;;;;;;18.40;8.13;;;;;;;;;;5055148;28;20965;-88
2022/03/05 06:51:16;;;;;;;14.13;7.70;;;;;;;;;;5087303;28;20450;-93
2022/03/05 06:53:43;;;;;;;11.57;7.30;;;;;;;;;;5088063;28;20476;-89
2022/03/05 06:56:14;;;;;;;16.03;9.47;;;-0.90;99.90;;;;;;5083788;28;20441;-88
2022/03/05 06:58:42;;;;;;;13.97;8.30;;;;;;;;;;5073547;28;20434;-87
2022/03/05 07:01:11;;;;;;;13.43;8.47;;;;;;;;;;5077568;28;20442;-89
2022/03/05 07:03:38;;;;;;;14.80;8.50;;;;;;;;;;5079309;28;20463;-90
2022/03/05 07:06:06;;;;;;;12.37;7.90;;;;;;;;;;5082366;28;20489;-86
2022/03/05 07:08:33;;;;;;;23.07;8.43;;;;;;;;;;5085659;28;20472;-87
2022/03/05 07:11:00;;;;;;;12.00;8.60;;;;;;;;;;5088774;28;20452;-89
2022/03/05 07:13:28;;;;;;;14.87;10.60;;;0.80;99.90;;;;;;5086097;28;20448;-87
2022/03/05 07:15:55;;;;;;;18.63;11.87;;;;;;;;;;5087631;28;20817;-87
2022/03/05 07:18:23;;;;;;;26.23;16.30;;;;;;;;;;5083888;28;20438;-86
2022/03/05 07:20:50;;;;;;;25.50;14.47;;;;;;;;;;5087128;28;20434;-92
2022/03/05 07:23:17;;;;;;;23.83;11.90;;;;;;;;;;5079531;28;20457;-87
2022/03/05 07:25:44;;;;;;;20.70;11.27;;;;;;;;;;5083204;28;20470;-92
2022/03/05 07:28:12;;;;;;;18.23;12.37;;;2.10;99.90;;;;;;5087620;28;20445;-89
2022/03/05 07:30:42;;;;;;;18.90;12.50;;;2.20;99.90;;;;;;5089577;23;20481;-86
2022/03/05 07:33:10;;;;;;;15.13;11.70;;;;;;;;;;5081759;28;20522;-86
2022/03/05 07:35:37;;;;;;;20.23;13.33;;;;;;;;;;5081464;28;20450;-85
2022/03/05 07:38:04;;;;;;;24.20;15.13;;;;;;;;;;5078440;28;20449;-83
2022/03/05 07:40:31;;;;;;;18.70;11.93;;;;;;;;;;5074935;28;20465;-88
2022/03/05 07:42:58;;;;;;;21.90;16.20;;;;;;;;;;5078108;28;20452;-91
2022/03/05 07:45:26;;;;;;;20.23;14.60;;;;;;;;;;5083583;28;20551;-86
2022/03/05 07:47:54;;;;;;;29.40;16.97;;;4.20;96.40;;;;;;5078311;28;20450;-91
2022/03/05 07:50:22;;;;;;;16.40;10.83;;;4.80;95.70;;;;;;5080845;28;20449;-87
2022/03/05 07:52:50;;;;;;;21.07;13.50;;;;;;;;;;5095077;28;20817;-88
2022/03/05 07:55:17;;;;;;;20.60;11.17;;;;;;;;;;5108180;28;20459;-86
2022/03/05 07:57:44;;;;;;;21.07;12.10;;;;;;;;;;5099642;28;20444;-85
2022/03/05 08:00:12;;;;;;;14.93;10.13;;;;;;;;;;5098661;28;20454;-85
2022/03/05 08:02:39;;;;;;;21.30;11.73;;;;;;;;;;5106512;28;20436;-88
2022/03/05 08:05:08;;;;;;;17.07;11.40;;;5.30;93.70;;;;;;5105690;28;20444;-85
2022/03/05 08:07:35;;;;;;;19.07;11.57;;;;;;;;;;5106726;28;20441;-89
2022/03/05 08:10:07;;;;;;;19.97;12.87;;;;;;;;;;5103055;28;20445;-89
2022/03/05 08:12:34;;;;;;;18.13;10.97;;;;;;;;;;5099571;28;20449;-84
2022/03/05 08:15:01;;;;;;;17.07;11.80;;;;;;;;;;5082806;28;20450;-89
2022/03/05 08:17:29;;;;;;;20.63;13.23;;;;;;;;;;5070221;28;21010;-86
2022/03/05 08:19:56;;;;;;;16.30;10.53;;;;;;;;;;5080205;28;20450;-83
2022/03/05 08:22:24;;;;;;;20.13;12.10;;;5.80;92.20;;;;;;5081327;28;20445;-85
2022/03/05 08:24:52;;;;;;;17.63;11.97;;;;;;;;;;5095880;28;20504;-87
2022/03/05 08:27:19;;;;;;;22.40;13.50;;;;;;;;;;5100876;28;20496;-85
2022/03/05 08:29:46;;;;;;;19.00;12.63;;;;;;;;;;5096594;28;20444;-86
2022/03/05 08:32:13;;;;;;;17.30;11.50;;;;;;;;;;5098195;28;20980;-89
2022/03/05 08:34:40;;;;;;;15.20;11.07;;;;;;;;;;5104223;28;20454;-88
2022/03/05 08:37:08;;;;;;;15.30;10.60;;;;;;;;;;5101575;28;20464;-92
2022/03/05 08:39:36;;;;;;;18.70;11.90;;;6.80;90.40;;;;;;5100166;28;20493;-90
2022/03/05 08:42:03;;;;;;;23.13;11.97;;;;;;;;;;5100096;28;20440;-85
2022/03/05 08:44:30;;;;;;;18.37;11.80;;;;;;;;;;5096361;23;20530;-85
2022/03/05 08:46:58;;;;;;;18.43;11.93;;;;;;;;;;5065483;28;20490;-85
2022/03/05 08:49:25;;;;;;;14.57;10.83;;;;;;;;;;5064498;28;20442;-86
2022/03/05 08:51:52;;;;;;;16.87;10.40;;;;;;;;;;5065272;28;20459;-95
2022/03/05 08:54:20;;;;;;;16.20;10.80;;;;;;;;;;5060341;28;20454;-88
2022/03/05 08:56:48;;;;;;;20.23;11.97;;;7.20;89.10;;;;;;5068027;28;20436;-92
2022/03/05 08:59:16;;;;;;;16.50;10.97;;;;;;;;;;5066994;28;20455;-86
2022/03/05 09:01:43;;;;;;;17.80;10.77;;;;;;;;;;5065761;28;20438;-86
2022/03/05 09:04:10;;;;;;;14.43;9.37;;;;;;;;;;5059544;28;20441;-90
2022/03/05 09:06:38;;;;;;;18.10;11.97;;;;;;;;;;5059000;28;20506;-92
2022/03/05 09:09:05;;;;;;;18.23;11.43;;;;;;;;;;5057636;28;20992;-93
2022/03/05 09:11:32;;;;;;;19.73;10.83;;;;;;;;;;5055570;28;20442;-91
2022/03/05 09:14:00;;;;;;;19.93;10.63;;;6.80;88.80;;;;;;5053930;28;20443;-86
2022/03/05 09:16:27;;;;;;;17.80;11.90;;;;;;;;;;5053761;28;20438;-87
2022/03/05 09:18:55;;;;;;;17.00;11.83;;;;;;;;;;5054177;28;20443;-90
2022/03/05 09:21:22;;;;;;;19.33;10.67;;;;;;;;;;5053545;28;20508;-86
2022/03/05 09:23:49;;;;;;;15.90;10.77;;;;;;;;;;5054006;28;20442;-90
2022/03/05 09:26:16;;;;;;;13.73;9.47;;;;;;;;;;5054269;28;20497;-90
2022/03/05 09:28:44;;;;;;;13.90;10.70;;;;;;;;;;5054678;28;20431;-89
2022/03/05 09:31:12;;;;;;;16.40;11.50;;;8.20;84.30;;;;;;5054372;28;20446;-88
2022/03/05 09:33:39;;;;;;;16.17;10.50;;;;;;;;;;5052845;28;20829;-89
2022/03/05 09:36:06;;;;;;;13.77;10.03;;;;;;;;;;5056755;28;20934;-86
2022/03/05 09:38:33;;;;;;;13.90;10.10;;;;;;;;;;5054718;28;20844;-89
2022/03/05 09:41:02;;;;;;;13.00;9.50;;;7.40;99.90;;;;;;5055947;28;20438;-89
2022/03/05 09:43:29;;;;;;;14.83;8.80;;;;;;;;;;5059639;28;20461;-92
2022/03/05 09:45:58;;;;;;;13.90;10.20;;;8.20;81.80;;;;;;5077107;28;20481;-89
2022/03/05 09:48:28;;;;;;;12.20;9.10;;;8.00;79.70;;;;;;5078595;28;20469;-91
2022/03/05 09:50:57;;;;;;;12.03;8.30;;;8.40;79.20;;;;;;5071573;28;20454;-90
2022/03/05 09:53:28;;;;;;;13.90;9.47;;;8.80;78.40;;;;;;5080743;28;20441;-91
2022/03/05 09:55:55;;;;;;;16.50;11.17;;;;;;;;;;5076978;28;20449;-90
2022/03/05 09:58:22;;;;;;;17.63;9.53;;;;;;;;;;5092532;23;20493;-89
2022/03/05 10:00:49;;;;;;;12.77;9.87;;;;;;;;;;5085689;28;20513;-91
2022/03/05 10:03:17;;;;;;;14.50;9.73;;;;;;;;;;5082101;28;20457;-90
2022/03/05 10:05:47;;;;;;;13.50;8.97;;;8.20;76.70;;;;;;5083973;28;20461;-90
2022/03/05 10:08:15;;;;;;;12.83;8.40;;;;;;;;;;5086924;28;20454;-91
2022/03/05 10:10:48;;;;;;;14.90;10.60;;;8.20;77.50;;;;;;5080450;28;20537;-93
2022/03/05 10:13:26;;;;;;;12.53;9.60;;;8.90;99.90;;;;;;5073446;28;20460;-90
2022/03/05 10:15:54;;;;;;;13.30;9.20;;;8.40;78.00;;;;;;5077034;28;20449;-93
2022/03/05 10:18:30;;;;;;;13.07;9.17;;;9.30;99.90;;;;;;5078251;28;20457;-91
2022/03/05 10:20:59;;;;;;;13.47;8.23;;;9.60;72.80;;;;;;5077917;28;20441;-92
2022/03/05 10:23:29;;;;;;;11.93;8.90;;;;;;;;;;5081425;28;20583;-92
2022/03/05 10:25:57;;;;;;;12.63;9.17;;;9.20;73.30;;;;;;5078801;28;20454;-90
2022/03/05 10:28:26;;;;;;;13.17;8.57;;;10.10;71.10;;;;;;5080078;28;20453;-88
2022/03/05 10:31:01;;;;;;;14.00;9.30;;;9.90;70.70;;;;;;5103537;22;20482;-91
2022/03/05 10:33:38;;;;;;;12.43;8.07;;;9.00;70.60;;;;;;5066229;28;20448;-93
2022/03/05 10:36:21;;;;;;;11.73;9.73;;;9.40;71.40;;;;;;5071132;28;20456;-92
2022/03/05 10:39:03;;;;;;;12.77;10.07;;;;;;;;;;5072724;28;20426;-94
2022/03/05 10:41:34;;;;;;;11.93;7.73;;;9.00;70.70;;;;;;5067791;28;20435;-92
2022/03/05 10:44:07;;;;;;;12.10;8.50;;;9.50;73.60;;;;;;5067298;28;20447;-91
2022/03/05 10:46:38;;;;;;;12.20;7.90;;;;;;;;;;5173586;23;20489;-93
2022/03/05 10:49:07;;;;;;;10.03;6.60;;;9.30;68.20;;;;;;5066712;28;20452;-89
2022/03/05 10:51:39;;;;;;;10.60;7.20;;;8.80;69.50;;;;;;5073022;28;20466;-90
2022/03/05 10:54:10;;;;;;;12.23;8.30;;;9.40;71.20;;;;;;5126522;23;20481;-90
2022/03/05 10:56:37;;;;;;;9.90;6.63;;;;;;;;;;5086280;28;20438;-90
2022/03/05 10:59:10;;;;;;;11.37;8.17;;;9.00;69.20;;;;;;5081025;28;20457;-89
2022/03/05 11:01:39;;;;;;;11.57;7.07;;;8.80;73.00;;;;;;5082786;28;20441;-92
2022/03/05 11:04:07;;;;;;;8.23;6.47;;;9.30;68.70;;;;;;5073551;28;20453;-88
2022/03/05 11:06:38;;;;;;;7.30;5.13;;;8.70;66.70;;;;;;5078712;28;20842;-91
2022/03/05 11:09:10;;;;;;;9.33;6.40;;;9.30;66.60;;;;;;5077641;28;20449;-90
2022/03/05 11:11:39;;;;;;;11.27;7.17;;;9.00;65.40;;;;;;5081085;28;20449;-88
2022/03/05 11:14:06;;;;;;;9.70;6.73;;;;;;;;;;5081287;28;20536;-88
2022/03/05 11:16:34;;;;;;;9.60;6.50;;;;;;;;;;5079096;28;20519;-88
2022/03/05 11:19:01;;;;;;;14.50;6.83;;;;;;;;;;5081021;28;20926;-89
2022/03/05 11:21:29;;;;;;;10.17;6.77;;;;;;;;;;5081874;28;20492;-90
2022/03/05 11:23:58;;;;;;;9.50;7.30;;;;;;;;;;5081672;22;20524;-91
2022/03/05 11:26:25;;;;;;;9.30;6.70;;;;;;;;;;5063589;28;20458;-92
2022/03/05 11:28:53;;;;;;;9.23;5.83;;;;;;;;;;5067424;28;20526;-89
2022/03/05 11:31:22;;;;;;;10.27;7.43;;;9.60;64.10;;;;;;5072888;28;20446;-89
2022/03/05 11:33:51;;;;;;;10.90;8.10;;;;;;;;;;5072962;28;20463;-87
2022/03/05 11:36:36;;;;;;;7.47;5.93;;;9.50;63.20;;;;;;5072978;28;20514;-89
2022/03/05 11:39:12;;;;;;;7.60;5.87;;;;;;;;;;5073271;28;20434;-89
2022/03/05 11:41:52;;;;;;;6.50;5.07;;;;;;;;;;5071003;28;20485;-90
2022/03/05 11:44:21;;;;;;;8.07;5.83;;;10.30;62.90;;;;;;5073844;28;20469;-89
2022/03/05 11:46:52;;;;;;;7.57;5.70;;;9.40;62.20;;;;;;5068279;28;20521;-88
2022/03/05 11:49:19;;;;;;;9.23;6.60;;;;;;;;;;5070379;28;20509;-88
2022/03/05 11:51:56;;;;;;;13.87;7.00;;;10.40;59.90;;;;;;5086116;28;20461;-89
2022/03/05 11:54:32;;;;;;;9.33;7.10;;;8.90;61.80;;;;;;5089898;28;20446;-90
2022/03/05 11:57:14;;;;;;;10.70;7.00;;;9.80;61.10;;;;;;5092229;28;20493;-88
2022/03/05 11:59:42;;;;;;;10.03;6.47;;;9.30;63.00;;;;;;5094253;28;20430;-89
2022/03/05 12:02:17;;;;;;;10.50;5.70;;;;;;;;;;5095828;28;20472;-86
2022/03/05 12:04:48;;;;;;;9.37;5.73;;;9.50;60.00;;;;;;5094701;28;20934;-87
2022/03/05 12:07:17;;;;;;;10.50;7.00;;;;;;;;;;5098856;28;20450;-89
2022/03/05 12:09:54;;;;;;;11.40;7.40;;;9.70;59.50;;;;;;5097161;28;20501;-90
2022/03/05 12:12:23;;;;;;;8.80;5.90;;;;;;;;;;5093654;28;20952;-92
2022/03/05 12:35:50;;;;;;;9.47;7.00;;;9.70;58.60;;;;;;5003564;28;20480;-83
2022/03/05 12:38:32;;;;;;;9.97;6.27;;;;;;;;;;5002063;28;20512;-85
2022/03/05 12:50:39;;;;;;;9.87;6.90;;;10.40;56.70;;;;;;5010428;28;20476;-84
2022/03/05 13:04:20;;;;;;;11.73;7.70;;;;;;;;;;5773364;22;20484;-92
2022/03/05 13:06:49;;;;;;;8.43;6.70;;;;;;;;;;5015557;28;20453;-92
2022/03/05 13:09:16;;;;;;;9.23;6.63;;;;;;;;;;5015550;28;20474;-91
2022/03/05 13:11:43;;;;;;;8.83;6.40;;;;;;;;;;5017625;28;20449;-93
2022/03/05 13:14:11;;;;;;;9.83;7.23;;;;;;;;;;5019806;28;20453;-91
2022/03/05 13:16:41;;;;;;;10.43;7.93;;;;;;;;;;5017784;28;20459;-87
2022/03/05 13:19:09;;;;;;;11.93;7.43;;;11.00;55.80;;;;;;5017571;28;20436;-84
2022/03/05 13:21:39;;;;;;;7.53;6.30;;;11.10;56.40;;;;;;5019743;28;20459;-87
2022/03/05 13:24:10;;;;;;;11.80;6.87;;;11.50;85.80;;;;;;5017927;28;20459;-86
2022/03/05 13:26:40;;;;;;;8.03;6.73;;;10.40;55.20;;;;;;5018401;28;20449;-87
2022/03/05 13:29:10;;;;;;;9.90;6.97;;;11.30;55.40;;;;;;5017802;28;20452;-86
2022/03/05 13:31:37;;;;;;;11.23;7.30;;;;;;;;;;5019142;28;20467;-85
2022/03/05 13:34:05;;;;;;;9.03;6.70;;;11.60;56.00;;;;;;5018611;28;20491;-86
2022/03/05 13:36:37;;;;;;;10.50;7.30;;;11.90;54.60;;;;;;5018322;28;20451;-87
2022/03/05 13:39:11;;;;;;;8.47;7.20;;;11.40;55.00;;;;;;5019329;28;20444;-87
2022/03/05 13:41:42;;;;;;;8.73;6.87;;;12.10;55.20;;;;;;5020838;28;20444;-87
2022/03/05 13:44:19;;;;;;;19.20;7.80;;;12.50;55.30;;;;;;5020418;28;20452;-87
2022/03/05 13:46:47;;;;;;;7.83;6.90;;;12.70;52.10;;;;;;5018379;28;20853;-86
2022/03/05 13:49:17;;;;;;;7.90;6.33;;;12.40;51.30;;;;;;5018025;28;20456;-85
2022/03/05 13:51:47;;;;;;;10.07;7.27;;;12.40;81.60;;;;;;4999817;28;21010;-86
2022/03/05 13:54:16;;;;;;;7.13;6.43;;;11.60;53.00;;;;;;4995762;28;20460;-85
2022/03/05 13:56:44;;;;;;;9.10;7.17;;;10.70;52.80;;;;;;4979073;28;20453;-86
2022/03/05 13:59:12;;;;;;;8.97;7.13;;;11.20;54.80;;;;;;4981547;28;21008;-86
2022/03/05 14:01:41;;;;;;;10.30;6.80;;;11.50;55.20;;;;;;4980978;28;20458;-87
2022/03/05 14:04:13;;;;;;;10.67;7.03;;;11.10;53.90;;;;;;4985139;28;20512;-87
2022/03/05 14:06:54;;;;;;;11.10;6.70;;;10.80;84.10;;;;;;4980619;28;20453;-85
2022/03/05 14:09:33;;;;;;;9.27;7.10;;;11.50;54.20;;;;;;4982401;28;20461;-87
2022/03/05 14:12:09;;;;;;;8.60;7.10;;;12.30;83.70;;;;;;4983019;28;20452;-86
2022/03/05 14:14:41;;;;;;;15.00;7.17;;;11.50;53.60;;;;;;4980349;28;20445;-86
2022/03/05 14:17:09;;;;;;;8.23;6.87;;;;;;;;;;4983033;28;20442;-87
2022/03/05 14:19:36;;;;;;;8.20;6.37;;;;;;;;;;4981496;28;20978;-86
2022/03/05 14:22:08;;;;;;;8.13;6.60;;;11.30;76.70;;;;;;4982797;28;20817;-87
2022/03/05 14:24:37;;;;;;;8.63;6.83;;;11.90;54.70;;;;;;4981784;28;20445;-86
2022/03/05 14:27:11;;;;;;;9.40;7.00;;;11.60;90.70;;;;;;4983061;28;20458;-86
2022/03/05 14:29:39;;;;;;;9.33;6.70;;;11.90;82.40;;;;;;4981251;28;20454;-86
2022/03/05 14:32:07;;;;;;;8.93;7.37;;;;;;;;;;4978412;28;20571;-86
2022/03/05 14:34:34;;;;;;;11.20;6.93;;;;;;;;;;4982459;28;20462;-87
2022/03/05 14:37:01;;;;;;;9.53;7.50;;;;;;;;;;4981341;28;20446;-86
2022/03/05 14:39:29;;;;;;;9.13;8.07;;;;;;;;;;4980337;28;20450;-87
2022/03/05 14:41:57;;;;;;;10.47;7.40;;;9.80;56.20;;;;;;4981420;28;20631;-86